createdAt,value
2018-05-27T05:16:18.417Z,2.4
2018-05-27T05:17:20.728Z,1.5
2018-05-27T05:18:23.036Z,1.5
2018-05-27T05:19:25.077Z,1.4
2018-05-27T05:20:27.395Z,1.5
2018-05-27T05:21:29.697Z,1.4
2018-05-27T05:22:32.757Z,1.5
2018-05-27T05:23:35.068Z,1.5
2018-05-27T05:24:37.382Z,1.5
2018-05-27T05:25:39.895Z,1.5
2018-05-27T05:26:42.408Z,1.5
2018-05-27T05:27:44.814Z,1.4
2018-05-27T05:28:47.206Z,1.4
2018-05-27T05:29:49.521Z,1.5
2018-05-27T05:30:51.824Z,1.5
2018-05-27T05:31:54.145Z,1.5
2018-05-27T05:32:56.457Z,1.5
2018-05-27T05:33:58.769Z,1.6
2018-05-27T05:35:01.075Z,1.5
2018-05-27T05:41:09.723Z,0
2018-05-27T05:42:11.938Z,0
2018-05-27T05:43:14.373Z,0
2018-05-27T05:44:16.589Z,0
2018-05-27T05:45:18.797Z,0
2018-05-27T05:46:21.013Z,0
2018-05-27T05:47:23.245Z,0
2018-05-27T05:48:25.463Z,0
2018-05-27T05:49:27.693Z,0
2018-05-27T05:50:29.923Z,0
2018-05-27T05:51:32.132Z,0
2018-05-27T05:52:34.349Z,0
2018-05-27T05:53:36.567Z,0
2018-05-27T05:54:38.794Z,0
2018-05-27T05:55:41.021Z,0
2018-05-27T05:56:42.700Z,0
2018-05-27T05:57:44.918Z,0
2018-05-27T05:58:47.146Z,0
2018-05-27T05:59:49.100Z,0
2018-05-27T06:00:51.309Z,0
2018-05-27T06:01:53.514Z,0
2018-05-27T06:02:55.718Z,0
2018-05-27T06:03:57.940Z,0
2018-05-27T06:05:00.161Z,0
2018-05-27T06:06:02.380Z,0
2018-05-27T06:07:04.604Z,0
2018-05-27T06:08:06.818Z,0
2018-05-27T06:09:09.039Z,0
2018-05-27T06:10:11.259Z,0
2018-05-27T06:11:13.483Z,0
2018-05-27T06:12:15.695Z,0
2018-05-27T06:13:17.926Z,0
2018-05-27T06:14:20.346Z,0
2018-05-27T06:15:22.027Z,0
2018-05-27T06:16:23.980Z,0
2018-05-27T06:17:26.185Z,0
2018-05-27T06:18:28.407Z,0
2018-05-27T06:19:30.622Z,0
2018-05-27T06:20:32.972Z,0
2018-05-27T06:21:34.912Z,0
2018-05-27T06:22:36.611Z,0
2018-05-27T06:23:38.844Z,0
2018-05-27T06:24:41.073Z,0
2018-05-27T06:25:43.304Z,0
2018-05-27T06:26:45.676Z,0
2018-05-27T06:27:47.931Z,0
2018-05-27T06:28:50.156Z,0
2018-05-27T06:29:52.397Z,0
2018-05-27T06:30:54.605Z,0
2018-05-27T06:31:56.881Z,0
2018-05-27T06:32:59.161Z,0
2018-05-27T06:34:01.116Z,0
2018-05-27T06:35:03.325Z,0
2018-05-27T06:36:05.537Z,0
2018-05-27T06:37:07.494Z,0
2018-05-27T06:38:09.715Z,0
2018-05-27T06:39:11.926Z,0
2018-05-27T06:40:14.139Z,0
2018-05-27T06:41:16.366Z,0
2018-05-27T06:42:18.577Z,0
2018-05-27T06:43:20.796Z,0
2018-05-27T06:44:23.023Z,0
2018-05-27T06:45:25.250Z,0
2018-05-27T06:46:27.468Z,0
2018-05-27T06:47:29.696Z,0
2018-05-27T06:48:31.912Z,0
2018-05-27T06:49:34.128Z,0
2018-05-27T06:50:36.339Z,0
2018-05-27T06:51:38.576Z,0
2018-05-27T06:52:40.789Z,0
2018-05-27T06:53:43.013Z,0
2018-05-27T06:54:45.256Z,0
2018-05-27T06:55:47.470Z,0
2018-05-27T06:56:49.683Z,0
2018-05-27T06:57:51.909Z,0
2018-05-27T06:58:54.129Z,0
2018-05-27T06:59:56.350Z,0
2018-05-27T07:00:58.569Z,0
2018-05-27T07:02:00.794Z,0
2018-05-27T07:03:03.111Z,0
2018-05-27T07:04:05.320Z,0
2018-05-27T07:05:07.547Z,0
2018-05-27T07:06:09.779Z,0
2018-05-27T07:07:11.998Z,0
2018-05-27T07:08:14.215Z,0
2018-05-27T07:09:16.439Z,0
2018-05-27T07:10:18.382Z,0
2018-05-27T07:11:20.600Z,0
2018-05-27T07:12:22.545Z,0
2018-05-27T07:13:24.778Z,0
2018-05-27T07:14:26.998Z,0
2018-05-27T07:15:29.215Z,0
2018-05-27T07:16:31.435Z,0
2018-05-27T07:51:04.078Z,2
2018-05-27T07:52:06.292Z,1.9
2018-05-27T07:53:08.518Z,1.9
2018-05-27T07:54:10.749Z,1.9
2018-05-27T07:55:12.966Z,2
2018-05-27T07:56:15.184Z,1.8
2018-05-27T07:57:17.401Z,1.8
2018-05-27T07:58:19.729Z,1.9
2018-05-27T07:59:22.189Z,1.8
2018-05-27T08:00:24.409Z,1.6
2018-05-27T08:01:26.626Z,1.9
2018-05-27T08:02:28.861Z,1.8
2018-05-27T08:03:31.072Z,1.8
2018-05-27T08:18:22.191Z,25.4
2018-05-27T08:19:24.406Z,24.4
2018-05-27T08:20:26.609Z,24.9
2018-05-27T08:21:28.831Z,24.4
2018-05-27T08:22:31.043Z,23
2018-05-27T08:23:33.265Z,23.5
2018-05-27T08:24:35.476Z,23.5
2018-05-27T08:25:37.696Z,23.5
2018-05-27T08:26:39.919Z,24.4
2018-05-27T08:27:42.139Z,24.4
2018-05-27T08:28:44.365Z,24.4
2018-05-27T08:29:46.642Z,23.5
2018-05-27T08:30:48.856Z,24.4
2018-05-27T08:31:51.079Z,24.4
2018-05-27T08:32:53.295Z,23.5
2018-05-27T08:33:55.258Z,23.9
2018-05-27T08:34:57.517Z,23.5
2018-05-27T08:35:59.791Z,23.9
2018-05-27T08:37:01.738Z,23.9
2018-05-27T08:38:03.955Z,23
2018-05-27T08:39:06.182Z,23.5
2018-05-27T08:40:08.409Z,24.4
2018-05-27T08:41:10.628Z,23.9
2018-05-27T08:42:12.856Z,24.4
2018-05-27T08:43:15.079Z,23.9
2018-05-27T08:44:17.295Z,24.4
2018-05-27T08:45:19.520Z,23.5
2018-05-27T08:46:21.737Z,23
2018-05-27T08:47:23.962Z,23
2018-05-27T08:48:26.177Z,23
2018-05-27T08:49:28.387Z,23.9
2018-05-27T08:50:30.608Z,23.9
2018-05-27T08:51:32.823Z,23
2018-05-27T08:52:35.052Z,23.5
2018-05-27T08:53:37.265Z,23.5
2018-05-27T08:54:39.486Z,24.4
2018-05-27T08:55:41.719Z,23
2018-05-27T08:56:43.931Z,23.9
2018-05-27T08:57:46.153Z,23.5
2018-05-27T08:58:48.378Z,23.9
2018-05-27T08:59:50.597Z,23.5
2018-05-27T09:00:52.822Z,23.9
2018-05-27T09:01:55.033Z,23.9
2018-05-27T09:02:57.245Z,23
2018-05-27T09:03:59.468Z,24.4
2018-05-27T09:05:01.697Z,24.4
2018-05-27T09:06:03.923Z,23.5
2018-05-27T09:07:06.133Z,23.5
2018-05-27T09:08:08.363Z,23.5
2018-05-27T09:09:10.598Z,23.5
2018-05-27T09:10:13.007Z,23.9
2018-05-27T09:11:15.225Z,23.9
2018-05-27T09:12:17.440Z,23.5
2018-05-27T09:13:19.870Z,23.9
2018-05-27T09:14:22.085Z,23
2018-05-27T09:15:24.447Z,23
2018-05-27T09:16:26.977Z,23.9
2018-05-27T09:17:29.195Z,23.9
2018-05-27T09:18:31.408Z,23.5
2018-05-27T09:19:33.628Z,23.5
2018-05-27T09:20:35.859Z,23.5
2018-05-27T09:21:38.083Z,23.9
2018-05-27T09:22:40.304Z,23.5
2018-05-27T09:23:42.527Z,23.9
2018-05-27T09:24:44.801Z,23.9
2018-05-27T09:25:46.761Z,23.9
2018-05-27T09:26:48.738Z,23.9
2018-05-27T09:27:50.959Z,23
2018-05-27T09:28:53.171Z,23.5
2018-05-27T09:29:55.601Z,23.5
2018-05-27T09:30:58.053Z,23.5
2018-05-27T09:32:00.270Z,23.9
2018-05-27T09:33:02.492Z,23.5
2018-05-27T09:34:04.745Z,23.9
2018-05-27T09:35:06.945Z,24.4
2018-05-27T09:36:09.150Z,23
2018-05-27T09:37:11.371Z,23.5
2018-05-27T09:38:13.581Z,23.5
2018-05-27T09:39:15.926Z,23.9
2018-05-27T09:40:18.335Z,23
2018-05-27T09:41:20.555Z,23.5
2018-05-27T09:42:22.778Z,24.4
2018-05-27T09:43:24.988Z,23
2018-05-27T09:44:27.203Z,23.9
2018-05-27T09:45:29.467Z,23.9
2018-05-27T09:46:31.582Z,24.4
2018-05-27T09:47:33.797Z,24.4
2018-05-27T09:48:36.019Z,23.9
2018-05-27T09:49:38.243Z,23
2018-05-27T09:50:40.467Z,23.9
2018-05-27T09:51:42.417Z,23.9
2018-05-27T09:52:44.364Z,23
2018-05-27T09:53:46.577Z,24.4
2018-05-27T09:54:48.816Z,23.9
2018-05-27T09:55:51.041Z,23.5
2018-05-27T09:56:53.257Z,22.5
2018-05-27T09:57:55.399Z,23.9
2018-05-27T09:58:57.573Z,23.5
2018-05-27T09:59:59.865Z,23.9
2018-05-27T10:01:02.295Z,23.9
2018-05-27T10:02:04.518Z,24.4
2018-05-27T10:03:06.737Z,24.4
2018-05-27T10:04:08.969Z,23.9
2018-05-27T10:05:11.187Z,24.4
2018-05-27T10:06:13.415Z,23.5
2018-05-27T10:07:15.631Z,23.5
2018-05-27T10:08:17.580Z,23.5
2018-05-27T10:09:19.813Z,23.9
2018-05-27T10:10:21.796Z,23.9
2018-05-27T10:11:24.016Z,23.9
2018-05-27T10:12:26.292Z,23.9
2018-05-27T10:13:28.237Z,24.4
2018-05-27T10:14:30.461Z,24.4
2018-05-27T10:15:32.670Z,24.4
2018-05-27T10:16:34.894Z,23.9
2018-05-27T10:17:37.126Z,23.5
2018-05-27T10:18:39.343Z,23.5
2018-05-27T10:19:41.573Z,24.4
2018-05-27T10:20:43.791Z,23.9
2018-05-27T10:21:45.730Z,23
2018-05-27T10:22:47.949Z,22.5
2018-05-27T10:23:50.162Z,23.9
2018-05-27T10:24:52.393Z,23
2018-05-27T10:25:54.756Z,23.9
2018-05-27T10:26:57.410Z,24.4
2018-05-27T10:27:59.627Z,23.5
2018-05-27T10:29:01.848Z,23
2018-05-27T10:30:04.075Z,23.9
2018-05-27T10:31:06.033Z,23.5
2018-05-27T10:32:08.250Z,23.5
2018-05-27T10:33:10.470Z,23.9
2018-05-27T10:34:12.898Z,23.5
2018-05-27T10:35:15.125Z,24.4
2018-05-27T10:36:17.358Z,23.9
2018-05-27T10:37:19.577Z,23.9
2018-05-27T10:38:21.793Z,23.9
2018-05-27T10:39:24.008Z,24.4
2018-05-27T10:40:26.223Z,23
2018-05-27T10:41:28.443Z,24.4
2018-05-27T10:42:30.675Z,23.9
2018-05-27T10:43:32.915Z,23.9
2018-05-27T10:44:35.165Z,23.9
2018-05-27T10:45:37.377Z,23.5
2018-05-27T10:46:39.617Z,24.4
2018-05-27T10:47:41.837Z,23.9
2018-05-27T10:48:44.050Z,23.9
2018-05-27T10:49:46.268Z,23.9
2018-05-27T10:50:48.494Z,23.5
2018-05-27T10:51:50.735Z,23.5
2018-05-27T10:52:52.672Z,23.5
2018-05-27T10:53:54.897Z,24.4
2018-05-27T10:54:56.837Z,23
2018-05-27T10:55:59.054Z,23.9
2018-05-27T10:57:01.286Z,23.9
2018-05-27T10:58:03.617Z,23.5
2018-05-27T10:59:05.833Z,23
2018-05-27T11:00:07.789Z,24.4
2018-05-27T11:01:10.019Z,23.5
2018-05-27T11:02:12.242Z,23
2018-05-27T11:03:14.457Z,23.5
2018-05-27T11:04:16.682Z,23
2018-05-27T11:05:18.901Z,23.9
2018-05-27T11:06:20.581Z,24.4
2018-05-27T11:07:22.847Z,23.9
2018-05-27T11:08:25.077Z,23.5
2018-05-27T11:09:27.299Z,23.9
2018-05-27T11:10:29.537Z,23
2018-05-27T11:11:31.763Z,24.4
2018-05-27T11:12:33.978Z,23
2018-05-27T11:13:36.223Z,24.4
2018-05-27T11:14:38.448Z,24.4
2018-05-27T11:15:40.677Z,23.9
2018-05-27T11:16:42.936Z,23.9
2018-05-27T11:17:45.295Z,22
2018-05-27T11:18:47.523Z,24.4
2018-05-27T11:19:49.766Z,24.4
2018-05-27T11:20:51.976Z,23.5
2018-05-27T11:21:54.191Z,23.9
2018-05-27T11:22:56.414Z,24.4
2018-05-27T11:23:58.632Z,23.9
2018-05-27T11:25:00.868Z,23
2018-05-27T11:26:03.107Z,24.4
2018-05-27T11:27:05.339Z,23.9
2018-05-27T11:28:07.305Z,23.5
2018-05-27T11:29:09.526Z,24.4
2018-05-27T11:30:11.747Z,23
2018-05-27T11:31:13.964Z,24.4
2018-05-27T11:32:16.191Z,24.4
2018-05-27T11:33:18.419Z,23.5
2018-05-27T11:34:20.664Z,24.4
2018-05-27T11:35:22.906Z,23
2018-05-27T11:36:25.121Z,24.4
2018-05-27T11:37:27.334Z,23.5
2018-05-27T11:38:29.549Z,23.9
2018-05-27T11:39:31.770Z,23.9
2018-05-27T11:40:33.991Z,24.4
2018-05-27T11:41:36.238Z,23.9
2018-05-27T11:42:38.464Z,24.4
2018-05-27T11:43:40.694Z,24.4
2018-05-27T11:44:42.905Z,23.5
2018-05-27T11:45:45.138Z,24.4
2018-05-27T11:46:47.359Z,23.9
2018-05-27T11:47:49.585Z,24.4
2018-05-27T11:48:51.803Z,23.9
2018-05-27T11:49:54.026Z,24.4
2018-05-27T11:50:56.249Z,24.4
2018-05-27T11:51:58.477Z,23.9
2018-05-27T11:53:00.702Z,23.9
2018-05-27T11:54:02.908Z,23.9
2018-05-27T11:55:05.125Z,23.5
2018-05-27T11:56:07.362Z,23.9
2018-05-27T11:57:09.587Z,24.4
2018-05-27T11:58:11.817Z,23.5
2018-05-27T11:59:14.047Z,23.9
2018-05-27T12:00:16.266Z,23.9
2018-05-27T12:01:18.486Z,23.9
2018-05-27T12:02:20.711Z,23.5
2018-05-27T12:03:22.933Z,24.4
2018-05-27T12:04:25.163Z,23
2018-05-27T12:05:27.405Z,24.4
2018-05-27T12:06:29.616Z,24.4
2018-05-27T12:07:31.575Z,23.5
2018-05-27T12:08:33.800Z,23.5
2018-05-27T12:09:36.395Z,24.4
2018-05-27T12:10:39.082Z,23.5
2018-05-27T12:11:41.111Z,23.9
2018-05-27T12:12:43.375Z,23.9
2018-05-27T12:13:45.590Z,23
2018-05-27T12:14:47.808Z,24.4
2018-05-27T12:15:50.028Z,23.9
2018-05-27T12:16:52.256Z,23
2018-05-27T12:17:54.696Z,24.4
2018-05-27T12:18:56.918Z,23
2018-05-27T12:19:59.143Z,24.4
2018-05-27T12:21:01.407Z,24.4
2018-05-27T12:22:03.635Z,22.5
2018-05-27T12:23:05.875Z,23.9
2018-05-27T12:24:08.205Z,22.5
2018-05-27T12:25:10.317Z,23.9
2018-05-27T12:26:12.277Z,23.9
2018-05-27T12:27:14.485Z,23.9
2018-05-27T12:28:16.722Z,23.5
2018-05-27T12:29:18.929Z,23.9
2018-05-27T12:30:21.143Z,24.4
2018-05-27T12:31:23.358Z,23.9
2018-05-27T12:32:25.614Z,23
2018-05-27T12:33:27.829Z,23.9
2018-05-27T12:34:30.044Z,23.9
2018-05-27T12:35:32.257Z,23.5
2018-05-27T12:36:34.478Z,23.9
2018-05-27T12:37:36.695Z,23.9
2018-05-27T12:38:38.926Z,23
2018-05-27T12:39:41.143Z,23.5
2018-05-27T12:40:43.355Z,23.9
2018-05-27T12:41:45.633Z,23.5
2018-05-27T12:42:47.928Z,23.9
2018-05-27T12:43:50.313Z,24.4
2018-05-27T12:44:52.527Z,24.4
2018-05-27T12:45:54.756Z,24.4
2018-05-27T12:46:56.967Z,23.9
2018-05-27T12:47:59.186Z,24.4
2018-05-27T12:49:01.404Z,24.4
2018-05-27T12:50:03.648Z,24.4
2018-05-27T12:51:06.002Z,23.5
2018-05-27T12:52:08.427Z,23.9
2018-05-27T12:53:10.641Z,24.4
2018-05-27T12:54:12.852Z,24.4
2018-05-27T12:55:15.057Z,24.4
2018-05-27T12:56:17.277Z,23.5
2018-05-27T12:57:19.493Z,23
2018-05-27T12:58:21.725Z,23.9
2018-05-27T12:59:23.667Z,24.4
2018-05-27T13:00:25.349Z,24.4
2018-05-27T13:01:27.577Z,23.5
2018-05-27T13:02:29.793Z,23.9
2018-05-27T13:03:32.026Z,23.9
2018-05-27T13:04:34.240Z,23.9
2018-05-27T13:05:36.461Z,23.9
2018-05-27T13:06:38.754Z,23.9
2018-05-27T13:07:41.079Z,23.9
2018-05-27T13:08:43.308Z,23
2018-05-27T13:09:45.530Z,23
2018-05-27T13:10:47.748Z,23.9
2018-05-27T13:11:50.000Z,24.4
2018-05-27T13:12:52.208Z,24.4
2018-05-27T13:13:54.433Z,24.4
2018-05-27T13:14:56.653Z,23.9
2018-05-27T13:15:58.877Z,23.9
2018-05-27T13:17:01.639Z,23.9
2018-05-27T13:18:04.240Z,23
2018-05-27T13:19:06.459Z,24.4
2018-05-27T13:20:08.683Z,23.9
2018-05-27T13:21:10.948Z,23.5
2018-05-27T13:22:12.894Z,23.9
2018-05-27T13:23:15.109Z,23.5
2018-05-27T13:24:17.327Z,23.9
2018-05-27T13:25:19.548Z,24.4
2018-05-27T13:26:21.773Z,24.4
2018-05-27T13:27:23.985Z,23.5
2018-05-27T13:28:26.208Z,24.4
2018-05-27T13:29:28.770Z,24.4
2018-05-27T13:30:30.208Z,24.4
2018-05-27T13:31:32.445Z,23.5
2018-05-27T13:32:34.686Z,24.4
2018-05-27T13:33:36.900Z,23.9
2018-05-27T13:34:39.121Z,24.4
2018-05-27T13:35:41.338Z,24.4
2018-05-27T13:36:43.562Z,24.4
2018-05-27T13:37:45.784Z,23.5
2018-05-27T13:38:48.014Z,23.9
2018-05-27T13:39:50.248Z,23
2018-05-27T13:40:52.557Z,24.4
2018-05-27T13:41:55.071Z,23.9
2018-05-27T13:42:57.455Z,23.9
2018-05-27T13:43:59.686Z,24.4
2018-05-27T13:45:02.021Z,23.9
2018-05-27T13:46:04.441Z,23.9
2018-05-27T13:47:06.659Z,24.4
2018-05-27T13:48:08.887Z,24.4
2018-05-27T13:49:11.171Z,24.4
2018-05-27T13:50:13.503Z,24.4
2018-05-27T13:51:15.728Z,23.5
2018-05-27T13:52:17.940Z,23.5
2018-05-27T13:53:20.159Z,24.4
2018-05-27T13:54:22.382Z,24.4
2018-05-27T13:55:24.667Z,23.9
2018-05-27T13:56:26.941Z,23.5
2018-05-27T13:57:29.163Z,24.4
2018-05-27T13:58:31.383Z,24.4
2018-05-27T13:59:33.608Z,24.4
2018-05-27T14:00:35.818Z,23.9
2018-05-27T14:01:38.057Z,23
2018-05-27T14:02:40.285Z,24.4
2018-05-27T14:03:42.524Z,24.4
2018-05-27T14:04:44.820Z,24.4
2018-05-27T14:05:47.118Z,23.9
2018-05-27T14:06:49.330Z,24.4
2018-05-27T14:07:51.558Z,23.9
2018-05-27T14:08:53.824Z,24.4
2018-05-27T14:09:56.034Z,23
2018-05-27T14:10:58.254Z,23.9
2018-05-27T14:12:00.464Z,24.4
2018-05-27T14:13:02.692Z,23
2018-05-27T14:14:04.906Z,24.4
2018-05-27T14:15:07.131Z,23.9
2018-05-27T14:16:09.339Z,23.9
2018-05-27T14:17:11.654Z,24.4
2018-05-27T14:18:13.744Z,24.4
2018-05-27T14:19:15.972Z,23.9
2018-05-27T14:20:17.946Z,24.4
2018-05-27T14:21:20.157Z,23.9
2018-05-27T14:22:22.379Z,24.4
2018-05-27T14:23:24.598Z,24.4
2018-05-27T14:24:26.825Z,24.4
2018-05-27T14:25:29.042Z,23.9
2018-05-27T14:26:31.260Z,23.9
2018-05-27T14:27:33.211Z,22.5
2018-05-27T14:28:35.432Z,23.5
2018-05-27T14:29:37.654Z,24.4
2018-05-27T14:30:39.621Z,23.9
2018-05-27T14:31:41.573Z,23.9
2018-05-27T14:32:43.791Z,24.4
2018-05-27T14:33:46.010Z,24.4
2018-05-27T14:34:48.228Z,23.9
2018-05-27T14:35:50.479Z,24.4
2018-05-27T14:36:52.445Z,24.4
2018-05-27T14:37:54.696Z,23.9
2018-05-27T14:38:57.033Z,23
2018-05-27T14:39:59.267Z,24.4
2018-05-27T14:41:01.481Z,23
2018-05-27T14:42:03.690Z,24.4
2018-05-27T14:43:05.907Z,24.4
2018-05-27T14:44:08.139Z,23.9
2018-05-27T14:45:10.360Z,24.4
2018-05-27T14:46:12.577Z,23.9
2018-05-27T14:47:14.793Z,23
2018-05-27T14:48:17.021Z,24.4
2018-05-27T14:49:19.274Z,24.4
2018-05-27T14:50:21.511Z,23.9
2018-05-27T14:51:23.467Z,23.9
2018-05-27T14:52:25.699Z,23.5
2018-05-27T14:53:27.915Z,23.9
2018-05-27T14:54:30.123Z,23.9
2018-05-27T14:55:32.348Z,24.4
2018-05-27T14:56:34.565Z,23
2018-05-27T14:57:36.888Z,24.4
2018-05-27T14:58:39.099Z,24.4
2018-05-27T14:59:41.318Z,24.4
2018-05-27T15:00:43.538Z,23.9
2018-05-27T15:01:45.770Z,23.5
2018-05-27T15:02:47.726Z,24.4
2018-05-27T15:03:49.954Z,24.4
2018-05-27T15:04:52.167Z,23.9
2018-05-27T15:05:54.389Z,23.9
2018-05-27T15:06:56.618Z,23.9
2018-05-27T15:07:58.838Z,23.9
2018-05-27T15:09:01.060Z,23.5
2018-05-27T15:10:03.268Z,23.9
2018-05-27T15:11:05.495Z,24.4
2018-05-27T15:12:07.790Z,24.4
2018-05-27T15:13:10.120Z,24.4
2018-05-27T15:14:12.333Z,24.4
2018-05-27T15:15:14.549Z,24.4
2018-05-27T15:16:16.770Z,24.4
2018-05-27T15:17:18.996Z,23.9
2018-05-27T15:18:21.247Z,23
2018-05-27T15:19:23.502Z,23.9
2018-05-27T15:20:25.460Z,23
2018-05-27T15:21:27.675Z,23.9
2018-05-27T15:22:29.898Z,23.9
2018-05-27T15:23:32.121Z,23.9
2018-05-27T15:24:34.088Z,24.4
2018-05-27T15:25:36.310Z,24.4
2018-05-27T15:26:38.534Z,24.4
2018-05-27T15:27:40.747Z,24.4
2018-05-27T15:28:42.966Z,24.4
2018-05-27T15:29:45.177Z,23.9
2018-05-27T15:30:47.407Z,24.4
2018-05-27T15:31:49.623Z,24.4
2018-05-27T15:32:51.849Z,24.4
2018-05-27T15:33:54.064Z,23.9
2018-05-27T15:34:56.293Z,23.9
2018-05-27T15:35:58.520Z,23.9
2018-05-27T15:37:00.744Z,23.9
2018-05-27T15:38:02.991Z,24.4
2018-05-27T15:39:05.189Z,24.4
2018-05-27T15:40:07.419Z,24.4
2018-05-27T15:41:09.643Z,23.5
2018-05-27T15:42:11.317Z,23.9
2018-05-27T15:43:13.567Z,23.9
2018-05-27T15:44:15.796Z,23.9
2018-05-27T15:45:18.017Z,23.9
2018-05-27T15:46:20.248Z,23.9
2018-05-27T15:47:22.479Z,23
2018-05-27T15:48:24.795Z,23.9
2018-05-27T15:49:27.183Z,24.4
2018-05-27T15:50:29.419Z,24.4
2018-05-27T15:51:31.627Z,23.9
2018-05-27T15:52:33.847Z,23.5
2018-05-27T15:53:36.080Z,23.9
2018-05-27T15:54:38.304Z,23.9
2018-05-27T15:55:40.526Z,24.4
2018-05-27T15:56:42.736Z,23.9
2018-05-27T15:57:44.969Z,23.5
2018-05-27T15:58:47.178Z,23.9
2018-05-27T15:59:49.466Z,24.4
2018-05-27T16:00:51.860Z,24.4
2018-05-27T16:01:54.079Z,24.4
2018-05-27T16:02:56.296Z,23.9
2018-05-27T16:03:58.520Z,24.4
2018-05-27T16:05:00.735Z,24.4
2018-05-27T16:06:02.949Z,24.4
2018-05-27T16:07:04.900Z,23
2018-05-27T16:08:07.115Z,23
2018-05-27T16:09:09.328Z,24.4
2018-05-27T16:10:11.756Z,23.9
2018-05-27T16:11:13.993Z,23.9
2018-05-27T16:12:15.671Z,24.4
2018-05-27T16:13:17.886Z,23.9
2018-05-27T16:14:19.835Z,24.4
2018-05-27T16:15:22.053Z,23.9
2018-05-27T16:16:24.266Z,24.4
2018-05-27T16:17:26.480Z,24.4
2018-05-27T16:18:28.433Z,23
2018-05-27T16:19:30.647Z,24.4
2018-05-27T16:20:32.927Z,23.5
2018-05-27T16:21:35.155Z,24.4
2018-05-27T16:22:37.366Z,24.4
2018-05-27T16:23:39.585Z,23
2018-05-27T16:24:41.802Z,23
2018-05-27T16:25:44.029Z,23.9
2018-05-27T16:26:46.452Z,24.4
2018-05-27T16:27:48.669Z,24.4
2018-05-27T16:28:50.892Z,24.4
2018-05-27T16:29:53.114Z,24.4
2018-05-27T16:30:55.344Z,24.4
2018-05-27T16:31:57.584Z,24.4
2018-05-27T16:32:59.796Z,23.9
2018-05-27T16:34:02.028Z,23.9
2018-05-27T16:35:04.250Z,24.4
2018-05-27T16:36:06.486Z,23.5
2018-05-27T16:37:08.702Z,24.4
2018-05-27T16:38:10.919Z,23.5
2018-05-27T16:39:13.142Z,23
2018-05-27T16:40:15.360Z,23.9
2018-05-27T16:41:17.313Z,24.4
2018-05-27T16:42:19.537Z,24.4
2018-05-27T16:43:21.757Z,23.9
2018-05-27T16:44:23.975Z,23
2018-05-27T16:45:26.192Z,23.9
2018-05-27T16:46:28.438Z,24.4
2018-05-27T16:47:30.406Z,24.4
2018-05-27T16:48:32.642Z,23.9
2018-05-27T16:49:34.866Z,24.4
2018-05-27T16:50:37.089Z,23.9
2018-05-27T16:51:39.308Z,23.5
2018-05-27T16:52:41.608Z,23.9
2018-05-27T16:53:43.929Z,24.4
2018-05-27T16:54:46.148Z,24.4
2018-05-27T16:55:48.355Z,23.5
2018-05-27T16:56:50.578Z,23.5
2018-05-27T16:57:52.793Z,24.4
2018-05-27T16:58:55.003Z,24.4
2018-05-27T16:59:57.227Z,23.9
2018-05-27T17:00:59.447Z,23
2018-05-27T17:02:01.660Z,24.4
2018-05-27T17:03:03.875Z,23.9
2018-05-27T17:04:06.102Z,24.4
2018-05-27T17:05:08.318Z,23.9
2018-05-27T17:06:10.536Z,23.5
2018-05-27T17:07:12.481Z,24.4
2018-05-27T17:08:14.708Z,24.4
2018-05-27T17:09:16.932Z,23
2018-05-27T17:10:18.887Z,23
2018-05-27T17:11:20.844Z,23.9
2018-05-27T17:12:23.111Z,23.9
2018-05-27T17:13:25.583Z,24.4
2018-05-27T17:14:27.801Z,24.4
2018-05-27T17:15:30.014Z,23.9
2018-05-27T17:16:32.239Z,23.9
2018-05-27T17:17:34.463Z,24.4
2018-05-27T17:18:36.701Z,24.4
2018-05-27T17:19:38.928Z,23.9
2018-05-27T17:20:41.146Z,23.9
2018-05-27T17:21:43.357Z,24.4
2018-05-27T17:22:45.574Z,23.9
2018-05-27T17:23:47.804Z,24.4
2018-05-27T17:24:50.029Z,23.5
2018-05-27T17:25:52.255Z,25.4
2018-05-27T17:26:54.474Z,24.4
2018-05-27T17:27:56.742Z,24.4
2018-05-27T17:28:59.028Z,24.4
2018-05-27T17:30:01.247Z,24.4
2018-05-27T17:31:03.462Z,23.9
2018-05-27T17:32:05.416Z,24.4
2018-05-27T17:33:07.639Z,23.5
2018-05-27T17:34:09.861Z,24.4
2018-05-27T17:35:12.074Z,23.9
2018-05-27T17:36:14.293Z,24.9
2018-05-27T17:37:16.529Z,23.5
2018-05-27T17:38:18.747Z,24.4
2018-05-27T17:39:20.968Z,23.9
2018-05-27T17:40:23.195Z,23.9
2018-05-27T17:41:25.420Z,24.4
2018-05-27T17:42:27.361Z,24.4
2018-05-27T17:43:29.588Z,24.4
2018-05-27T17:44:31.813Z,24.9
2018-05-27T17:45:34.026Z,24.4
2018-05-27T17:46:36.247Z,23.9
2018-05-27T17:47:38.485Z,24.9
2018-05-27T17:48:40.697Z,23.9
2018-05-27T17:49:42.919Z,23.9
2018-05-27T17:50:45.138Z,23.9
2018-05-27T17:51:47.376Z,23.9
2018-05-27T17:52:49.607Z,24.9
2018-05-27T17:53:51.817Z,23.9
2018-05-27T17:54:54.048Z,23.5
2018-05-27T17:55:56.272Z,24.9
2018-05-27T17:56:58.484Z,24.9
2018-05-27T17:58:00.706Z,24.9
2018-05-27T17:59:02.924Z,24.9
2018-05-27T18:00:05.146Z,24.9
2018-05-27T18:01:07.363Z,24.9
2018-05-27T18:02:09.585Z,24.9
2018-05-27T18:03:11.810Z,24.9
2018-05-27T18:04:14.066Z,24.9
2018-05-27T18:05:16.485Z,24.9
2018-05-27T18:06:18.700Z,23.9
2018-05-27T18:07:20.942Z,25.4
2018-05-27T18:08:23.184Z,24.9
2018-05-27T18:09:25.405Z,24.9
2018-05-27T18:10:27.625Z,24.9
2018-05-27T18:11:29.838Z,24.9
2018-05-27T18:12:31.789Z,24.9
2018-05-27T18:13:34.002Z,24.9
2018-05-27T18:14:36.234Z,24.9
2018-05-27T18:15:38.263Z,24.9
2018-05-27T18:16:40.662Z,25.4
2018-05-27T18:17:42.877Z,25.4
2018-05-27T18:18:44.816Z,25.4
2018-05-27T18:19:47.035Z,24.9
2018-05-27T18:20:49.257Z,24.9
2018-05-27T18:21:51.208Z,23.9
2018-05-27T18:22:53.439Z,25.4
2018-05-27T18:23:55.664Z,24.9
2018-05-27T18:24:57.882Z,24.9
2018-05-27T18:26:00.094Z,24.9
2018-05-27T18:27:02.329Z,23.9
2018-05-27T18:28:04.271Z,24.9
2018-05-27T18:29:06.246Z,24.9
2018-05-27T18:30:08.472Z,24.9
2018-05-27T18:31:10.686Z,24.9
2018-05-27T18:32:12.905Z,23.9
2018-05-27T18:33:15.142Z,23.9
2018-05-27T18:34:17.468Z,25.4
2018-05-27T18:35:19.429Z,23.9
2018-05-27T18:36:21.654Z,23.5
2018-05-27T18:37:23.874Z,23.9
2018-05-27T18:38:26.112Z,24.9
2018-05-27T18:39:28.335Z,25.4
2018-05-27T18:40:30.556Z,24.9
2018-05-27T18:41:32.789Z,25.4
2018-05-27T18:42:35.014Z,24.9
2018-05-27T18:43:36.956Z,25.4
2018-05-27T18:44:39.187Z,24.9
2018-05-27T18:45:41.574Z,25.4
2018-05-27T18:46:44.007Z,25.4
2018-05-27T18:47:46.242Z,25.4
2018-05-27T18:48:48.468Z,24.4
2018-05-27T18:49:50.689Z,24.9
2018-05-27T18:50:52.926Z,24.9
2018-05-27T18:51:55.163Z,25.4
2018-05-27T18:52:57.375Z,24.9
2018-05-27T18:53:59.598Z,24.9
2018-05-27T18:55:01.821Z,24.9
2018-05-27T18:56:04.052Z,23.9
2018-05-27T18:57:06.290Z,24.9
2018-05-27T18:58:08.526Z,24.9
2018-05-27T18:59:10.734Z,24.9
2018-05-27T19:00:12.691Z,24.9
2018-05-27T19:01:14.917Z,23.9
2018-05-27T19:02:17.148Z,24.9
2018-05-27T19:03:19.375Z,24.9
2018-05-27T19:04:21.766Z,23.9
2018-05-27T19:05:24.227Z,24.9
2018-05-27T19:06:26.459Z,24.9
2018-05-27T19:07:28.682Z,23.9
2018-05-27T19:08:30.917Z,25.4
2018-05-27T19:09:33.145Z,23.9
2018-05-27T19:10:35.380Z,23.9
2018-05-27T19:11:37.592Z,24.4
2018-05-27T19:12:39.819Z,24.4
2018-05-27T19:13:42.041Z,24.9
2018-05-27T19:14:44.261Z,24.9
2018-05-27T19:15:46.488Z,23.9
2018-05-27T19:16:48.711Z,24.4
2018-05-27T19:17:50.934Z,25.4
2018-05-27T19:18:53.176Z,24.9
2018-05-27T19:19:55.466Z,24.9
2018-05-27T19:20:57.902Z,24.9
2018-05-27T19:22:00.132Z,25.4
2018-05-27T19:23:02.372Z,24.4
2018-05-27T19:24:04.600Z,24.9
2018-05-27T19:25:06.812Z,24.4
2018-05-27T19:26:09.122Z,24.9
2018-05-27T19:27:11.588Z,23.9
2018-05-27T19:28:13.826Z,25.4
2018-05-27T19:29:16.073Z,23.5
2018-05-27T19:30:18.284Z,24.9
2018-05-27T19:31:20.501Z,24.9
2018-05-27T19:32:22.942Z,24.9
2018-05-27T19:33:25.153Z,23.9
2018-05-27T19:34:27.379Z,24.4
2018-05-27T19:35:29.608Z,24.9
2018-05-27T19:36:31.831Z,23.9
2018-05-27T19:37:33.787Z,24.4
2018-05-27T19:38:36.047Z,23.5
2018-05-27T19:39:38.284Z,24.4
2018-05-27T19:40:40.245Z,24.9
2018-05-27T19:41:42.473Z,25.4
2018-05-27T19:42:44.716Z,24.9
2018-05-27T19:43:46.678Z,24.9
